createdAt,value
2022-12-03T14:08:39.578Z,25.33
2022-12-03T14:11:07.392Z,27.65
2022-12-03T14:13:35.073Z,25.23
2022-12-03T14:16:02.726Z,25.02
2022-12-03T14:18:30.375Z,24.58
2022-12-03T14:20:58.103Z,24.42
2022-12-03T14:23:26.002Z,23.77
2022-12-03T14:25:53.805Z,23.35
2022-12-03T14:28:21.405Z,24.40
2022-12-03T14:30:49.071Z,23.75
2022-12-03T14:33:17.227Z,23.23
2022-12-03T14:35:44.885Z,24.10
2022-12-03T14:38:14.671Z,23.63
2022-12-03T14:40:42.698Z,24.48
2022-12-03T14:43:10.793Z,23.38
2022-12-03T14:45:39.004Z,22.48
2022-12-03T14:48:07.122Z,22.23
2022-12-03T14:50:34.955Z,22.48
2022-12-03T14:53:02.585Z,22.70
2022-12-03T14:55:30.215Z,23.38
2022-12-03T14:57:57.813Z,22.63
2022-12-03T15:00:25.533Z,22.60
2022-12-03T15:02:53.199Z,22.02
2022-12-03T15:05:26.608Z,22.42
2022-12-03T15:07:56.438Z,21.77
2022-12-03T15:10:24.094Z,21.77
2022-12-03T15:12:51.722Z,22.17
2022-12-03T15:15:19.446Z,21.10
2022-12-03T15:17:47.467Z,21.42
2022-12-03T15:20:15.314Z,22.88
2022-12-03T15:22:44.049Z,21.65
2022-12-03T15:25:12.383Z,22.90
2022-12-03T15:27:41.671Z,22.52
2022-12-03T15:30:09.808Z,22.23
2022-12-03T15:32:37.426Z,22.52
2022-12-03T15:35:06.980Z,21.63
2022-12-03T15:37:34.817Z,20.83
2022-12-03T15:40:02.482Z,21.10
2022-12-03T15:42:30.149Z,21.85
2022-12-03T15:44:57.796Z,20.88
2022-12-03T15:47:25.608Z,20.98
2022-12-03T15:49:53.449Z,20.83
2022-12-03T15:52:21.137Z,21.92
2022-12-03T15:54:49.950Z,21.98
2022-12-03T15:57:17.841Z,21.77
2022-12-03T15:59:45.427Z,22.02
2022-12-03T16:02:13.140Z,22.15
2022-12-03T16:04:40.814Z,22.05
2022-12-03T16:07:09.582Z,21.63
2022-12-03T16:09:37.451Z,22.10
2022-12-03T16:12:05.291Z,21.75
2022-12-03T16:14:32.958Z,22.58
2022-12-03T16:17:00.661Z,22.10
2022-12-03T16:19:28.462Z,20.45
2022-12-03T16:21:56.065Z,23.20
2022-12-03T16:24:23.647Z,23.65
2022-12-03T16:26:52.250Z,22.98
2022-12-03T16:29:19.818Z,22.83
2022-12-03T16:31:47.806Z,23.35
2022-12-03T16:34:15.508Z,23.15
2022-12-03T16:36:43.504Z,23.73
2022-12-03T16:39:11.291Z,22.73
2022-12-03T16:41:39.988Z,22.60
2022-12-03T16:44:07.702Z,23.38
2022-12-03T16:46:35.564Z,22.33
2022-12-03T16:49:04.160Z,22.70
2022-12-03T16:51:31.790Z,22.30
2022-12-03T16:53:59.381Z,22.98
2022-12-03T16:56:27.001Z,21.77
2022-12-03T16:58:54.634Z,21.58
2022-12-03T17:01:23.603Z,21.10
2022-12-03T17:03:51.357Z,21.42
2022-12-03T17:06:18.989Z,21.73
2022-12-03T17:08:49.563Z,22.17
2022-12-03T17:11:17.973Z,23.17
2022-12-03T17:13:46.147Z,22.63
2022-12-03T17:16:13.795Z,23.13
2022-12-03T17:18:41.696Z,21.63
2022-12-03T17:21:09.309Z,22.02
2022-12-03T17:23:36.876Z,23.15
2022-12-03T17:26:04.608Z,22.92
2022-12-03T17:28:32.204Z,23.35
2022-12-03T17:30:59.834Z,23.00
2022-12-03T17:33:27.494Z,22.70
2022-12-03T17:35:55.086Z,24.00
2022-12-03T17:38:22.682Z,21.65
2022-12-03T17:40:50.322Z,22.80
2022-12-03T17:43:17.930Z,23.40
2022-12-03T17:45:45.540Z,21.17
2022-12-03T17:48:13.207Z,22.90
2022-12-03T17:50:40.841Z,22.33
2022-12-03T17:53:10.592Z,22.20
2022-12-03T17:55:44.277Z,22.65
2022-12-03T17:58:13.491Z,19.98
2022-12-03T18:00:41.359Z,20.02
2022-12-03T18:03:09.452Z,20.85
2022-12-03T18:05:37.085Z,21.30
2022-12-03T18:08:05.047Z,20.50
2022-12-03T18:10:32.696Z,20.40
2022-12-03T18:13:02.243Z,20.35
2022-12-03T18:15:31.241Z,21.02
2022-12-03T18:17:58.900Z,20.08
2022-12-03T18:20:26.654Z,20.92
2022-12-03T18:22:54.295Z,20.38
2022-12-03T18:25:21.897Z,20.35
2022-12-03T18:27:49.464Z,21.75
2022-12-03T18:30:17.136Z,21.02
2022-12-03T18:32:44.780Z,21.05
2022-12-03T18:35:12.408Z,19.67
2022-12-03T18:37:40.161Z,19.50
2022-12-03T18:40:14.289Z,19.25
2022-12-03T18:42:41.902Z,21.02
2022-12-03T18:45:13.380Z,19.05
2022-12-03T18:47:41.165Z,19.92
2022-12-03T18:50:09.895Z,19.35
2022-12-03T18:52:37.840Z,20.08
2022-12-03T18:55:06.937Z,19.45
2022-12-03T18:57:34.627Z,19.35
2022-12-03T19:00:02.507Z,18.73
2022-12-03T19:03:01.145Z,19.20
2022-12-03T19:05:17.742Z,19.38
2022-12-03T19:07:45.408Z,21.50
2022-12-03T19:10:13.130Z,23.90
2022-12-03T19:12:40.713Z,21.98
2022-12-03T19:15:09.240Z,23.50
2022-12-03T19:17:39.515Z,20.95
2022-12-03T19:20:09.375Z,18.25
2022-12-03T19:22:37.491Z,19.52
2022-12-03T19:25:05.473Z,19.63
2022-12-03T19:27:33.073Z,19.40
2022-12-03T19:30:00.662Z,21.05
2022-12-03T19:32:28.323Z,21.30
2022-12-03T19:34:55.971Z,21.02
2022-12-03T19:37:23.552Z,21.15
2022-12-03T19:39:54.211Z,21.80
2022-12-03T19:44:49.616Z,20.63
2022-12-03T19:47:17.290Z,21.90
2022-12-03T19:49:44.858Z,21.83
2022-12-03T19:52:12.468Z,21.50
2022-12-03T19:54:40.047Z,21.42
2022-12-03T19:57:07.727Z,22.30
2022-12-03T19:59:35.366Z,21.67
2022-12-03T20:02:03.169Z,22.13
2022-12-03T20:04:30.904Z,21.50
2022-12-03T20:06:58.587Z,21.85
2022-12-03T20:09:26.182Z,22.23
2022-12-03T20:11:54.074Z,20.67
2022-12-03T20:14:22.069Z,23.30
2022-12-03T20:16:49.938Z,22.30
2022-12-03T20:19:18.325Z,21.92
2022-12-03T20:21:46.048Z,22.27
2022-12-03T20:24:16.875Z,23.20
2022-12-03T20:26:44.937Z,22.58
2022-12-03T20:29:12.602Z,22.58
2022-12-03T20:31:40.280Z,21.27
2022-12-03T20:34:07.995Z,20.80
2022-12-03T20:36:35.930Z,21.80
2022-12-03T20:39:06.349Z,22.50
2022-12-03T20:41:38.212Z,19.73
2022-12-03T20:44:07.687Z,21.55
2022-12-03T20:46:36.347Z,21.42
2022-12-03T20:49:04.316Z,22.13
2022-12-03T20:51:32.447Z,20.95
2022-12-03T20:54:00.847Z,20.75
2022-12-03T20:56:35.002Z,20.80
2022-12-03T20:59:07.719Z,21.23
2022-12-03T21:01:36.494Z,21.42
2022-12-03T21:04:06.966Z,20.02
2022-12-03T21:06:36.028Z,21.42
2022-12-03T21:09:06.424Z,21.13
2022-12-03T21:11:36.064Z,20.92
2022-12-03T21:14:04.383Z,19.85
2022-12-03T21:17:06.133Z,20.20
2022-12-03T21:19:23.037Z,20.63
2022-12-03T21:21:50.689Z,20.15
2022-12-03T21:24:18.377Z,20.85
2022-12-03T21:26:45.990Z,20.27
2022-12-03T21:29:13.564Z,19.60
2022-12-03T21:31:41.249Z,20.33
2022-12-03T21:34:08.985Z,21.23
2022-12-03T21:36:36.668Z,21.63
2022-12-03T21:39:05.178Z,20.60
2022-12-03T21:41:35.285Z,20.60
2022-12-03T21:44:03.799Z,20.27
2022-12-03T21:47:12.342Z,19.60
2022-12-03T21:49:20.427Z,20.48
2022-12-03T21:51:48.486Z,19.52
2022-12-03T21:54:16.150Z,21.05
2022-12-03T21:56:43.758Z,20.25
2022-12-03T21:59:11.343Z,19.92
2022-12-03T22:01:41.649Z,20.58
2022-12-03T22:04:13.227Z,21.02
2022-12-03T22:06:40.825Z,19.60
2022-12-03T22:09:08.439Z,19.25
2022-12-03T22:11:36.155Z,20.02
2022-12-03T22:14:04.929Z,20.55
2022-12-03T22:16:32.730Z,20.02
2022-12-03T22:19:00.385Z,19.80
2022-12-03T22:21:28.097Z,20.50
2022-12-03T22:23:56.265Z,19.73
2022-12-03T22:26:23.865Z,21.58
2022-12-03T22:28:51.654Z,20.17
2022-12-03T22:31:19.405Z,21.25
2022-12-03T22:33:48.641Z,20.80
2022-12-03T22:36:21.295Z,20.40
2022-12-03T22:38:51.621Z,19.98
2022-12-03T22:41:20.109Z,20.70
2022-12-03T22:43:48.943Z,19.42
2022-12-03T22:46:17.824Z,19.10
2022-12-03T22:48:47.244Z,19.48
2022-12-03T22:51:23.767Z,20.48
2022-12-03T22:53:56.150Z,18.33
2022-12-03T22:56:24.415Z,19.83
2022-12-03T22:58:52.018Z,20.23
2022-12-03T23:01:28.885Z,19.77
2022-12-03T23:03:57.004Z,19.63
2022-12-03T23:06:24.954Z,19.55
2022-12-03T23:08:52.702Z,19.00
2022-12-03T23:11:20.770Z,18.85
2022-12-03T23:13:48.716Z,19.50
2022-12-03T23:16:23.366Z,20.20
2022-12-03T23:18:50.996Z,19.58
2022-12-03T23:21:27.228Z,18.27
2022-12-03T23:23:58.767Z,19.17
2022-12-03T23:26:26.817Z,19.02
2022-12-03T23:28:54.897Z,19.05
2022-12-03T23:31:24.376Z,18.80
2022-12-03T23:33:52.928Z,18.83
2022-12-03T23:36:22.235Z,19.23
2022-12-03T23:38:50.281Z,18.60
2022-12-03T23:41:20.366Z,19.15
2022-12-03T23:43:48.438Z,19.10
2022-12-03T23:46:19.296Z,18.27
2022-12-03T23:51:25.764Z,18.63
2022-12-03T23:53:55.424Z,18.30
2022-12-03T23:56:26.284Z,19.00
2022-12-03T23:58:53.931Z,19.13
